createdAt,value
2018-10-16T00:00:19.206Z,69.58
2018-10-16T00:02:48.439Z,69.55
2018-10-16T00:05:18.550Z,69.60
2018-10-16T00:07:47.396Z,69.67
2018-10-16T00:10:21.269Z,69.78
2018-10-16T00:12:50.099Z,69.32
2018-10-16T00:15:18.810Z,69.24
2018-10-16T00:17:48.509Z,69.31
2018-10-16T00:20:17.337Z,69.45
2018-10-16T00:22:46.175Z,69.19
2018-10-16T00:25:16.793Z,68.87
2018-10-16T00:27:45.633Z,68.03
2018-10-16T00:30:14.369Z,68.45
2018-10-16T00:32:43.248Z,69.07
2018-10-16T00:35:12.558Z,69.96
2018-10-16T00:37:41.364Z,70.40
2018-10-16T00:40:10.685Z,69.87
2018-10-16T00:44:08.500Z,69.32
2018-10-16T00:46:37.540Z,69.88
2018-10-16T00:49:06.406Z,70.11
2018-10-16T00:51:35.270Z,70.46
2018-10-16T00:54:04.070Z,70.46
2018-10-16T00:56:32.764Z,70.16
2018-10-16T00:59:01.562Z,70.26
2018-10-16T01:01:31.921Z,69.85
2018-10-16T01:04:02.732Z,69.99
2018-10-16T01:06:32.136Z,70.04
2018-10-16T01:09:00.864Z,71.17
2018-10-16T01:11:29.725Z,72.61
2018-10-16T01:13:59.149Z,73.08
2018-10-16T01:16:28.354Z,73.57
2018-10-16T01:18:57.164Z,74.23
2018-10-16T01:21:25.973Z,74.72
2018-10-16T01:23:54.700Z,73.62
2018-10-16T01:26:23.377Z,73.97
2018-10-16T01:28:52.132Z,73.72
2018-10-16T01:31:20.825Z,73.83
2018-10-16T01:33:53.190Z,72.73
2018-10-16T01:36:23.863Z,72.67
2018-10-16T01:38:53.853Z,74.56
2018-10-16T01:41:24.091Z,76.07
2018-10-16T01:43:54.085Z,75.92
2018-10-16T01:46:22.756Z,75.55
2018-10-16T01:48:51.369Z,76.25
2018-10-16T01:51:20.151Z,76.50
2018-10-16T01:53:49.004Z,76.65
2018-10-16T01:56:17.821Z,78.29
2018-10-16T01:58:51.116Z,78.79
2018-10-16T02:01:20.488Z,78.66
2018-10-16T02:03:49.325Z,77.62
2018-10-16T02:06:18.133Z,76.88
2018-10-16T02:08:47.885Z,76.28
2018-10-16T02:11:16.856Z,77.87
2018-10-16T02:13:45.698Z,78.41
2018-10-16T02:16:16.036Z,78.12
2018-10-16T02:18:46.623Z,78.00
2018-10-16T02:21:17.300Z,78.21
2018-10-16T02:23:47.928Z,77.93
2018-10-16T02:26:19.851Z,78.11
2018-10-16T02:28:50.937Z,78.17
2018-10-16T02:31:19.628Z,76.92
2018-10-16T02:33:48.358Z,77.93
2018-10-16T02:36:17.149Z,77.28
2018-10-16T02:38:48.637Z,77.90
2018-10-16T02:41:18.311Z,77.79
2018-10-16T02:43:47.193Z,78.04
2018-10-16T02:46:16.037Z,78.41
2018-10-16T02:48:44.741Z,79.93
2018-10-16T02:51:13.441Z,77.78
2018-10-16T02:53:42.001Z,76.64
2018-10-16T02:56:10.708Z,75.64
2018-10-16T02:58:39.502Z,75.02
2018-10-16T03:01:08.843Z,75.20
2018-10-16T03:03:39.751Z,75.66
2018-10-16T03:06:08.493Z,75.49
2018-10-16T03:08:38.048Z,75.27
2018-10-16T03:11:06.908Z,74.92
2018-10-16T03:13:35.678Z,74.83
2018-10-16T03:16:04.394Z,75.03
2018-10-16T03:18:33.067Z,76.76
2018-10-16T03:21:01.765Z,77.60
2018-10-16T03:23:30.491Z,79.71
2018-10-16T03:25:59.092Z,79.76
2018-10-16T03:28:27.887Z,79.95
2018-10-16T03:30:56.669Z,80.18
2018-10-16T03:33:25.326Z,81.18
2018-10-16T03:35:53.908Z,81.06
2018-10-16T03:38:24.048Z,80.70
2018-10-16T03:40:54.264Z,81.12
2018-10-16T03:43:23.889Z,80.98
2018-10-16T03:45:52.605Z,80.28
2018-10-16T03:48:21.275Z,80.42
2018-10-16T03:50:49.841Z,79.88
2018-10-16T03:53:18.520Z,81.05
2018-10-16T03:55:47.105Z,80.95
2018-10-16T03:58:16.005Z,80.66
2018-10-16T04:00:44.619Z,81.13
2018-10-16T04:03:14.457Z,81.13
2018-10-16T04:05:43.158Z,80.55
2018-10-16T04:08:11.820Z,80.76
2018-10-16T04:10:40.537Z,80.54
2018-10-16T04:13:09.229Z,80.77
2018-10-16T04:15:37.877Z,80.40
2018-10-16T04:18:06.512Z,80.47
2018-10-16T04:20:35.337Z,80.61
2018-10-16T04:23:03.924Z,81.03
2018-10-16T04:25:32.610Z,81.01
2018-10-16T04:28:01.159Z,81.52
2018-10-16T04:30:29.830Z,81.46
2018-10-16T04:32:58.705Z,81.39
2018-10-16T04:35:27.311Z,81.34
2018-10-16T04:37:56.027Z,81.58
2018-10-16T04:40:24.812Z,81.59
2018-10-16T04:42:53.418Z,80.97
2018-10-16T04:45:22.074Z,81.04
2018-10-16T04:47:50.640Z,82.15
2018-10-16T04:50:19.189Z,81.67
2018-10-16T04:52:48.017Z,81.07
2018-10-16T04:55:16.750Z,81.19
2018-10-16T04:57:45.438Z,81.18
2018-10-16T05:00:14.218Z,81.36
2018-10-16T05:02:43.635Z,81.45
2018-10-16T05:05:24.508Z,81.15
2018-10-16T05:08:00.845Z,80.64
2018-10-16T05:10:29.674Z,80.96
2018-10-16T05:12:58.526Z,81.13
2018-10-16T05:15:34.276Z,80.94
2018-10-16T05:18:03.242Z,81.54
2018-10-16T05:20:32.443Z,81.12
2018-10-16T05:23:02.184Z,81.73
2018-10-16T05:25:31.520Z,81.72
2018-10-16T05:28:04.368Z,81.37
2018-10-16T05:30:33.991Z,82.74
2018-10-16T05:33:02.921Z,82.12
2018-10-16T05:35:31.768Z,82.42
2018-10-16T05:38:01.011Z,81.79
2018-10-16T05:40:30.672Z,82.06
2018-10-16T05:43:01.829Z,82.94
2018-10-16T05:45:33.521Z,82.39
2018-10-16T05:48:03.019Z,82.79
2018-10-16T05:50:31.955Z,81.93
2018-10-16T05:53:01.530Z,81.50
2018-10-16T05:55:30.423Z,81.59
2018-10-16T05:57:59.282Z,81.75
2018-10-16T06:00:40.551Z,81.77
2018-10-16T06:03:13.814Z,83.61
2018-10-16T06:05:45.463Z,83.13
2018-10-16T06:08:14.482Z,82.26
2018-10-16T06:10:43.330Z,82.25
2018-10-16T06:13:14.777Z,81.92
2018-10-16T06:15:44.681Z,81.13
2018-10-16T06:18:13.512Z,80.55
2018-10-16T06:20:42.125Z,79.50
2018-10-16T06:23:11.050Z,78.88
2018-10-16T06:25:39.926Z,78.92
2018-10-16T06:28:16.220Z,78.03
2018-10-16T06:30:44.961Z,77.44
2018-10-16T06:33:14.583Z,77.58
2018-10-16T06:35:43.522Z,75.72
2018-10-16T06:38:12.273Z,75.12
2018-10-16T06:40:40.896Z,75.33
2018-10-16T06:43:09.755Z,74.21
2018-10-16T06:45:38.641Z,74.21
2018-10-16T06:48:07.847Z,72.73
2018-10-16T06:50:36.672Z,70.69
2018-10-16T06:53:09.926Z,69.55
2018-10-16T06:55:38.934Z,65.70
2018-10-16T06:58:08.284Z,58.73
2018-10-16T07:00:37.117Z,54.27
2018-10-16T07:03:06.700Z,47.91
2018-10-16T07:05:35.438Z,43.39
2018-10-16T07:08:04.330Z,40.51
2018-10-16T07:10:33.028Z,38.92
2018-10-16T07:13:02.067Z,35.58
2018-10-16T07:15:30.911Z,34.64
2018-10-16T07:17:59.807Z,34.81
2018-10-16T07:20:28.649Z,33.85
2018-10-16T07:22:57.481Z,31.84
2018-10-16T07:25:26.344Z,30.10
2018-10-16T07:27:55.145Z,29.08
2018-10-16T07:30:23.891Z,28.97
2018-10-16T07:33:00.486Z,29.42
2018-10-16T07:35:30.420Z,28.71
2018-10-16T07:37:59.341Z,27.19
2018-10-16T07:40:28.179Z,26.67
2018-10-16T07:42:57.884Z,27.18
2018-10-16T07:45:27.371Z,25.16
2018-10-16T07:47:56.211Z,24.67
2018-10-16T07:50:24.994Z,24.11
2018-10-16T07:52:53.846Z,22.90
2018-10-16T07:55:22.688Z,21.93
2018-10-16T07:57:51.485Z,23.46
2018-10-16T08:00:20.395Z,24.57
2018-10-16T08:02:49.349Z,22.19
2018-10-16T08:05:18.169Z,21.18
2018-10-16T08:07:47.042Z,21.19
2018-10-16T08:10:15.941Z,20.36
2018-10-16T08:12:44.726Z,20.24
2018-10-16T08:15:13.689Z,19.92
2018-10-16T08:17:42.734Z,22.39
2018-10-16T08:20:11.363Z,21.59
2018-10-16T08:22:40.181Z,21.22
2018-10-16T08:25:09.042Z,21.31
2018-10-16T08:27:37.969Z,20.50
2018-10-16T08:30:08.399Z,20.49
2018-10-16T08:32:37.173Z,20.39
2018-10-16T08:35:06.433Z,19.91
2018-10-16T08:39:50.172Z,19.55
2018-10-16T08:43:38.080Z,19.41
2018-10-16T08:46:17.803Z,21.07
2018-10-16T08:48:58.152Z,20.93
2018-10-16T08:51:36.255Z,21.18
2018-10-16T08:54:05.117Z,19.78
2018-10-16T08:56:34.104Z,19.98
2018-10-16T08:59:03.282Z,20.57
2018-10-16T09:01:32.174Z,22.00
2018-10-16T09:04:01.877Z,21.58
2018-10-16T09:06:30.950Z,21.03
2018-10-16T09:08:59.779Z,21.44
2018-10-16T09:11:29.139Z,23.62
2018-10-16T09:13:57.946Z,24.21
2018-10-16T09:16:26.718Z,22.71
2018-10-16T09:18:55.528Z,23.13
2018-10-16T09:21:24.273Z,24.14
2018-10-16T09:23:59.065Z,24.73
2018-10-16T09:26:35.305Z,22.79
2018-10-16T09:29:06.571Z,23.52
2018-10-16T09:31:37.273Z,26.06
2018-10-16T09:34:06.064Z,24.62
2018-10-16T09:36:34.693Z,23.19
2018-10-16T09:39:03.893Z,21.19
2018-10-16T09:41:32.745Z,22.92
2018-10-16T09:44:01.584Z,23.47
2018-10-16T09:46:30.505Z,21.54
2018-10-16T09:48:59.428Z,25.02
2018-10-16T09:51:28.217Z,26.65
2018-10-16T09:53:57.177Z,24.62
2018-10-16T09:56:26.018Z,23.36
2018-10-16T09:58:56.722Z,24.22
2018-10-16T10:01:30.650Z,22.45
2018-10-16T10:04:00.610Z,22.37
2018-10-16T10:06:29.586Z,25.88
2018-10-16T10:08:58.624Z,24.58
2018-10-16T10:11:29.004Z,26.23
2018-10-16T10:13:57.891Z,25.41
2018-10-16T10:16:32.485Z,26.25
2018-10-16T10:19:01.421Z,25.69
2018-10-16T10:21:30.157Z,26.13
2018-10-16T10:23:59.048Z,25.20
2018-10-16T10:26:27.753Z,24.99
2018-10-16T10:28:57.498Z,26.64
2018-10-16T10:31:26.603Z,26.57
2018-10-16T10:33:55.333Z,26.33
2018-10-16T10:36:24.255Z,28.09
2018-10-16T10:38:53.140Z,26.27
2018-10-16T10:41:21.891Z,27.92
2018-10-16T10:43:50.912Z,30.72
2018-10-16T10:46:19.761Z,29.96
2018-10-16T10:48:48.468Z,32.72
2018-10-16T10:51:17.394Z,33.54
2018-10-16T10:53:45.999Z,32.67
2018-10-16T10:56:14.710Z,32.80
2018-10-16T10:58:43.431Z,31.93
2018-10-16T11:01:12.289Z,32.91
2018-10-16T11:03:41.259Z,33.10
2018-10-16T11:06:09.740Z,33.08
2018-10-16T11:08:38.577Z,33.47
2018-10-16T11:11:14.679Z,35.62
2018-10-16T11:13:43.607Z,36.04
2018-10-16T11:16:12.685Z,36.52
2018-10-16T11:18:41.392Z,36.62
2018-10-16T11:21:10.324Z,36.04
2018-10-16T11:23:39.174Z,35.95
2018-10-16T11:26:08.074Z,36.76
2018-10-16T11:28:39.421Z,36.97
2018-10-16T11:31:08.175Z,37.75
2018-10-16T11:33:37.004Z,37.14
2018-10-16T11:36:05.733Z,35.83
2018-10-16T11:38:34.573Z,36.54
2018-10-16T11:41:03.257Z,36.95
2018-10-16T11:43:32.044Z,36.65
2018-10-16T11:46:00.861Z,35.83
2018-10-16T11:48:29.623Z,36.37
2018-10-16T11:50:58.525Z,34.99
2018-10-16T11:53:27.384Z,36.16
2018-10-16T11:55:58.247Z,36.46
2018-10-16T11:58:26.977Z,35.13
2018-10-16T12:00:55.756Z,33.63
2018-10-16T12:03:24.375Z,32.77
2018-10-16T12:05:53.240Z,34.87
2018-10-16T12:08:22.162Z,36.42
2018-10-16T12:10:51.701Z,36.55
2018-10-16T12:13:20.362Z,36.99
2018-10-16T12:15:49.072Z,37.51
2018-10-16T12:18:31.736Z,36.72
2018-10-16T12:21:30.768Z,35.51
2018-10-16T12:23:59.559Z,36.31
2018-10-16T12:26:28.506Z,35.26
2018-10-16T12:28:57.386Z,35.86
2018-10-16T12:31:26.452Z,36.06
2018-10-16T12:33:55.047Z,37.03
2018-10-16T12:36:23.907Z,35.19
2018-10-16T12:38:52.690Z,35.19
2018-10-16T12:41:21.345Z,34.64
2018-10-16T12:43:50.138Z,35.05
2018-10-16T12:46:18.682Z,33.82
2018-10-16T12:48:47.579Z,32.81
2018-10-16T12:51:16.591Z,33.20
2018-10-16T12:53:45.322Z,33.59
2018-10-16T12:56:15.273Z,33.10
2018-10-16T12:58:44.012Z,33.23
2018-10-16T13:01:12.636Z,34.32
2018-10-16T13:03:41.560Z,35.45
2018-10-16T13:06:10.252Z,34.99
2018-10-16T13:08:39.088Z,34.25
2018-10-16T13:11:07.852Z,31.70
2018-10-16T13:13:36.531Z,31.00
2018-10-16T13:16:05.478Z,30.00
2018-10-16T13:18:34.130Z,30.38
2018-10-16T13:21:02.850Z,31.66
2018-10-16T13:23:31.724Z,31.92
2018-10-16T13:26:00.411Z,32.12
2018-10-16T13:28:29.129Z,30.86
2018-10-16T13:30:57.974Z,30.35
2018-10-16T13:33:26.810Z,30.53
2018-10-16T13:35:56.309Z,30.81
2018-10-16T13:38:25.197Z,30.97
2018-10-16T13:40:53.861Z,30.71
2018-10-16T13:43:22.809Z,31.09
2018-10-16T13:45:51.699Z,31.55
2018-10-16T13:48:20.521Z,33.48
2018-10-16T13:50:49.141Z,33.74
2018-10-16T13:53:17.827Z,33.54
2018-10-16T13:55:46.603Z,33.84
2018-10-16T13:58:15.293Z,34.04
2018-10-16T14:00:43.885Z,32.80
2018-10-16T14:03:12.725Z,32.47
2018-10-16T14:05:41.616Z,32.37
2018-10-16T14:08:10.253Z,32.71
2018-10-16T14:10:38.927Z,33.33
2018-10-16T14:13:07.635Z,32.29
2018-10-16T14:15:36.357Z,30.87
2018-10-16T14:18:05.458Z,29.25
2018-10-16T14:20:34.224Z,30.59
2018-10-16T14:23:02.792Z,30.88
2018-10-16T14:25:31.597Z,29.24
2018-10-16T14:28:00.431Z,28.64
2018-10-16T14:30:29.178Z,28.19
2018-10-16T14:32:57.752Z,27.53
2018-10-16T14:35:26.461Z,27.77
2018-10-16T14:37:55.318Z,26.55
2018-10-16T14:40:24.092Z,27.52
2018-10-16T14:42:52.908Z,27.03
2018-10-16T14:45:21.489Z,27.04
2018-10-16T14:47:50.177Z,27.15
2018-10-16T14:50:18.877Z,27.08
2018-10-16T14:52:47.675Z,27.91
2018-10-16T14:55:16.266Z,29.55
2018-10-16T14:57:45.014Z,30.65
2018-10-16T15:00:14.132Z,31.56
2018-10-16T15:02:42.811Z,32.95
2018-10-16T15:05:12.590Z,34.43
2018-10-16T15:07:41.473Z,35.06
2018-10-16T15:10:10.617Z,36.45
2018-10-16T15:12:39.153Z,36.63
2018-10-16T15:15:08.732Z,37.54
2018-10-16T15:17:37.534Z,38.54
2018-10-16T15:20:08.658Z,39.02
2018-10-16T15:22:37.235Z,39.08
2018-10-16T15:25:07.421Z,40.00
2018-10-16T15:27:36.209Z,41.16
2018-10-16T15:30:07.173Z,41.49
2018-10-16T15:32:35.890Z,41.10
2018-10-16T15:35:06.965Z,42.23
2018-10-16T15:37:36.040Z,42.16
2018-10-16T15:40:09.998Z,42.79
2018-10-16T15:42:39.063Z,42.09
2018-10-16T15:45:09.520Z,42.29
2018-10-16T15:47:38.786Z,42.42
2018-10-16T15:50:11.281Z,42.65
2018-10-16T15:52:41.316Z,43.19
2018-10-16T15:55:11.542Z,43.79
2018-10-16T15:57:40.491Z,44.86
2018-10-16T16:00:17.270Z,45.54
2018-10-16T16:02:48.314Z,46.33
2018-10-16T16:05:17.183Z,46.63
2018-10-16T16:07:46.030Z,47.09
2018-10-16T16:10:16.038Z,47.24
2018-10-16T16:12:45.162Z,47.29
2018-10-16T16:15:16.961Z,48.37
2018-10-16T16:17:45.747Z,48.69
2018-10-16T16:20:15.339Z,49.20
2018-10-16T16:22:44.524Z,49.84
2018-10-16T16:25:14.316Z,50.08
2018-10-16T16:27:43.162Z,51.29
2018-10-16T16:30:14.676Z,50.89
2018-10-16T16:32:43.424Z,50.95
2018-10-16T16:35:12.233Z,51.85
2018-10-16T16:37:40.946Z,52.25
2018-10-16T16:40:11.446Z,52.13
2018-10-16T16:42:39.985Z,52.82
2018-10-16T16:45:09.664Z,53.20
2018-10-16T16:47:38.515Z,53.40
2018-10-16T16:50:08.707Z,52.98
2018-10-16T16:52:37.508Z,53.62
2018-10-16T16:55:07.881Z,54.00
2018-10-16T16:57:36.587Z,53.82
2018-10-16T17:00:05.338Z,54.25
2018-10-16T17:02:34.178Z,54.69
2018-10-16T17:05:02.974Z,54.64
2018-10-16T17:07:31.804Z,55.26
2018-10-16T17:10:00.623Z,55.68
2018-10-16T17:12:29.441Z,56.34
2018-10-16T17:14:58.240Z,56.67
2018-10-16T17:17:27.089Z,56.95
2018-10-16T17:19:55.825Z,57.12
2018-10-16T17:22:24.591Z,57.07
2018-10-16T17:24:53.449Z,57.41
2018-10-16T17:27:21.981Z,57.45
2018-10-16T17:29:50.785Z,57.37
2018-10-16T17:32:19.472Z,58.33
2018-10-16T17:34:48.207Z,58.69
2018-10-16T17:37:16.918Z,58.68
2018-10-16T17:39:45.575Z,58.52
2018-10-16T17:42:14.402Z,58.92
2018-10-16T17:44:43.058Z,59.39
2018-10-16T17:47:11.420Z,59.31
2018-10-16T17:49:40.225Z,59.56
2018-10-16T17:52:08.934Z,60.10
2018-10-16T17:54:37.712Z,60.36
2018-10-16T17:57:06.478Z,60.47
2018-10-16T17:59:35.130Z,60.97
2018-10-16T18:02:03.824Z,61.19
2018-10-16T18:04:32.558Z,61.42
2018-10-16T18:07:01.193Z,62.03
2018-10-16T18:09:30.019Z,62.03
2018-10-16T18:11:58.802Z,62.10
2018-10-16T18:14:27.473Z,62.32
2018-10-16T18:16:56.156Z,62.12
2018-10-16T18:19:24.972Z,62.37
2018-10-16T18:21:53.654Z,63.19
2018-10-16T18:24:22.379Z,62.97
2018-10-16T18:26:51.189Z,63.41
2018-10-16T18:29:19.893Z,63.66
2018-10-16T18:31:48.678Z,64.07
2018-10-16T18:34:17.501Z,64.39
2018-10-16T18:36:46.261Z,64.43
2018-10-16T18:39:15.190Z,65.51
2018-10-16T18:41:44.025Z,67.43
2018-10-16T18:44:12.736Z,67.92
2018-10-16T18:46:41.412Z,68.82
2018-10-16T18:49:10.104Z,69.18
2018-10-16T18:51:38.888Z,68.75
2018-10-16T18:54:07.711Z,68.57
2018-10-16T18:56:36.512Z,67.94
2018-10-16T18:59:05.206Z,66.65
2018-10-16T19:01:33.876Z,65.84
2018-10-16T19:04:02.561Z,65.74
2018-10-16T19:06:31.343Z,66.35
2018-10-16T19:09:00.212Z,66.47
2018-10-16T19:11:28.730Z,66.70
2018-10-16T19:13:57.447Z,66.94
2018-10-16T19:16:26.120Z,66.67
2018-10-16T19:18:54.828Z,66.73
2018-10-16T19:21:23.476Z,66.48
2018-10-16T19:23:52.244Z,66.46
2018-10-16T19:26:20.941Z,66.75
2018-10-16T19:28:49.676Z,66.61
2018-10-16T19:31:18.487Z,66.69
2018-10-16T19:33:47.306Z,66.84
2018-10-16T19:36:16.159Z,67.06
2018-10-16T19:38:44.926Z,67.12
2018-10-16T19:41:13.761Z,67.64
2018-10-16T19:43:43.396Z,67.80
2018-10-16T19:46:11.965Z,67.38
2018-10-16T19:48:40.754Z,67.56
2018-10-16T19:51:09.543Z,67.38
2018-10-16T19:53:38.153Z,67.56
2018-10-16T19:56:07.088Z,67.46
2018-10-16T19:58:35.755Z,67.13
2018-10-16T20:01:04.477Z,67.19
2018-10-16T20:03:33.249Z,67.12
2018-10-16T20:06:02.104Z,67.10
2018-10-16T20:08:30.895Z,67.28
2018-10-16T20:10:59.715Z,67.45
2018-10-16T20:13:28.549Z,67.33
2018-10-16T20:15:57.116Z,68.03
2018-10-16T20:18:26.020Z,68.12
2018-10-16T20:20:54.747Z,68.07
2018-10-16T20:23:23.530Z,68.06
2018-10-16T20:25:52.797Z,68.50
2018-10-16T20:28:21.585Z,68.42
2018-10-16T20:30:50.168Z,68.92
2018-10-16T20:33:18.937Z,68.68
2018-10-16T20:35:47.661Z,68.88
2018-10-16T20:38:16.209Z,69.19
2018-10-16T20:40:44.909Z,71.30
2018-10-16T20:43:13.875Z,72.59
2018-10-16T20:45:42.501Z,72.01
2018-10-16T20:48:11.279Z,71.31
2018-10-16T20:50:40.103Z,71.54
2018-10-16T20:53:08.896Z,71.38
2018-10-16T20:55:37.697Z,71.17
2018-10-16T20:58:06.325Z,70.66
2018-10-16T21:00:35.197Z,70.67
2018-10-16T21:03:03.776Z,70.24
2018-10-16T21:05:32.696Z,70.35
2018-10-16T21:08:01.456Z,70.69
2018-10-16T21:10:30.320Z,71.94
2018-10-16T21:12:59.156Z,73.29
2018-10-16T21:15:27.923Z,72.78
2018-10-16T21:17:57.135Z,72.69
2018-10-16T21:20:26.027Z,72.59
2018-10-16T21:22:54.887Z,72.38
2018-10-16T21:25:23.558Z,72.34
2018-10-16T21:27:52.232Z,72.12
2018-10-16T21:30:20.920Z,71.89
2018-10-16T21:32:49.465Z,71.62
2018-10-16T21:35:18.247Z,71.63
2018-10-16T21:37:46.842Z,72.02
2018-10-16T21:40:15.636Z,71.98
2018-10-16T21:42:44.412Z,71.66
2018-10-16T21:45:13.165Z,71.61
2018-10-16T21:47:41.820Z,72.24
2018-10-16T21:50:10.527Z,72.31
2018-10-16T21:52:39.192Z,72.33
2018-10-16T21:55:08.057Z,72.85
2018-10-16T21:57:36.533Z,72.73
2018-10-16T22:00:06.094Z,72.57
2018-10-16T22:02:40.046Z,72.54
2018-10-16T22:05:08.755Z,72.58
2018-10-16T22:07:37.384Z,72.53
2018-10-16T22:10:06.608Z,72.76
2018-10-16T22:12:35.195Z,73.08
2018-10-16T22:15:03.862Z,73.46
2018-10-16T22:17:32.694Z,73.52
2018-10-16T22:20:01.332Z,73.46
2018-10-16T22:22:30.021Z,72.93
2018-10-16T22:24:58.630Z,72.12
2018-10-16T22:27:27.426Z,73.02
2018-10-16T22:29:56.192Z,72.88
2018-10-16T22:32:24.759Z,73.26
2018-10-16T22:34:53.615Z,73.54
2018-10-16T22:37:22.389Z,73.49
2018-10-16T22:39:51.056Z,73.61
2018-10-16T22:42:19.731Z,73.27
2018-10-16T22:44:48.432Z,73.82
2018-10-16T22:47:17.310Z,73.80
2018-10-16T22:49:45.984Z,73.74
2018-10-16T22:52:14.669Z,73.45
2018-10-16T22:54:43.234Z,73.30
2018-10-16T22:57:11.992Z,73.49
2018-10-16T22:59:40.877Z,73.98
2018-10-16T23:02:09.604Z,76.48
2018-10-16T23:04:38.380Z,77.43
2018-10-16T23:07:07.221Z,78.53
2018-10-16T23:09:36.013Z,78.29
2018-10-16T23:12:05.228Z,76.25
2018-10-16T23:14:34.036Z,75.87
2018-10-16T23:17:02.934Z,76.74
2018-10-16T23:19:31.704Z,76.56
2018-10-16T23:22:00.449Z,76.38
2018-10-16T23:24:29.277Z,76.15
2018-10-16T23:26:57.953Z,75.81
2018-10-16T23:29:26.794Z,76.02
2018-10-16T23:31:55.569Z,76.57
2018-10-16T23:34:24.437Z,76.77
2018-10-16T23:36:53.226Z,75.96
2018-10-16T23:39:21.909Z,75.22
2018-10-16T23:41:50.678Z,76.16
2018-10-16T23:44:19.504Z,75.89
2018-10-16T23:46:48.168Z,74.53
2018-10-16T23:49:16.855Z,73.47
2018-10-16T23:51:45.511Z,73.37
2018-10-16T23:54:14.355Z,72.91
2018-10-16T23:56:42.904Z,73.20
2018-10-16T23:59:11.655Z,74.56
